createdAt,value
2019-05-02T00:00:41.508Z,18.20
2019-05-02T00:01:41.461Z,19.10
2019-05-02T00:02:41.448Z,18.60
2019-05-02T00:03:42.878Z,19.20
2019-05-02T00:04:41.438Z,19.00
2019-05-02T00:05:41.418Z,18.60
2019-05-02T00:06:42.930Z,18.70
2019-05-02T00:07:41.398Z,18.60
2019-05-02T00:08:41.379Z,18.60
2019-05-02T00:09:47.497Z,18.60
2019-05-02T00:10:42.371Z,18.90
2019-05-02T00:11:41.387Z,19.00
2019-05-02T00:12:41.345Z,19.20
2019-05-02T00:13:41.334Z,19.10
2019-05-02T00:14:41.332Z,18.50
2019-05-02T00:15:41.316Z,18.60
2019-05-02T00:16:45.119Z,19.00
2019-05-02T00:17:42.290Z,18.90
2019-05-02T00:18:41.273Z,18.80
2019-05-02T00:19:44.980Z,18.90
2019-05-02T00:20:42.279Z,18.40
2019-05-02T00:21:43.038Z,18.10
2019-05-02T00:22:41.249Z,18.20
2019-05-02T00:23:41.217Z,18.60
2019-05-02T00:24:41.214Z,19.40
2019-05-02T00:25:41.203Z,18.70
2019-05-02T00:26:41.200Z,18.10
2019-05-02T00:27:41.189Z,19.00
2019-05-02T00:28:42.878Z,18.80
2019-05-02T00:29:42.147Z,18.90
2019-05-02T00:30:41.189Z,18.90
2019-05-02T00:31:41.830Z,18.10
2019-05-02T00:32:42.127Z,19.20
2019-05-02T00:33:41.130Z,18.80
2019-05-02T00:34:41.109Z,18.60
2019-05-02T00:35:46.230Z,19.00
2019-05-02T00:36:42.088Z,19.20
2019-05-02T00:37:41.085Z,19.30
2019-05-02T00:38:41.066Z,19.00
2019-05-02T00:39:45.225Z,19.40
2019-05-02T00:40:42.048Z,18.80
2019-05-02T00:41:41.029Z,18.80
2019-05-02T00:42:41.016Z,18.40
2019-05-02T00:43:41.014Z,18.60
2019-05-02T00:44:42.055Z,18.70
2019-05-02T00:45:41.989Z,18.60
2019-05-02T00:46:40.976Z,19.30
2019-05-02T00:47:42.167Z,19.60
2019-05-02T00:48:41.959Z,18.60
2019-05-02T00:49:40.947Z,19.00
2019-05-02T00:50:45.307Z,18.40
2019-05-02T00:51:41.926Z,18.60
2019-05-02T00:52:40.927Z,19.40
2019-05-02T00:53:44.367Z,19.00
2019-05-02T00:54:41.889Z,18.60
2019-05-02T00:55:40.878Z,18.20
2019-05-02T00:56:44.061Z,18.80
2019-05-02T00:57:40.855Z,19.40
2019-05-02T00:58:40.858Z,19.60
2019-05-02T00:59:42.380Z,18.60
2019-05-02T01:00:40.829Z,18.60
2019-05-02T01:01:40.805Z,19.00
2019-05-02T01:02:41.826Z,18.80
2019-05-02T01:03:40.809Z,19.20
2019-05-02T01:04:40.785Z,18.60
2019-05-02T01:05:40.754Z,19.10
2019-05-02T01:06:40.779Z,19.70
2019-05-02T01:07:40.748Z,19.20
2019-05-02T01:08:40.774Z,18.70
2019-05-02T01:09:42.246Z,18.90
2019-05-02T01:10:41.745Z,18.80
2019-05-02T01:11:40.697Z,18.40
2019-05-02T01:12:44.491Z,18.40
2019-05-02T01:13:41.677Z,19.00
2019-05-02T01:14:40.664Z,18.70
2019-05-02T01:15:44.150Z,18.10
2019-05-02T01:16:40.694Z,19.20
2019-05-02T01:17:40.623Z,18.70
2019-05-02T01:18:41.397Z,18.30
2019-05-02T01:19:40.633Z,19.20
2019-05-02T01:20:40.594Z,19.20
2019-05-02T01:21:40.582Z,19.10
2019-05-02T01:22:40.589Z,19.30
2019-05-02T01:23:40.564Z,19.70
2019-05-02T01:24:41.672Z,18.90
2019-05-02T01:25:40.545Z,19.90
2019-05-02T01:26:40.535Z,19.70
2019-05-02T01:27:41.279Z,19.40
2019-05-02T01:28:40.521Z,19.90
2019-05-02T01:29:40.495Z,19.60
2019-05-02T01:30:42.479Z,18.90
2019-05-02T01:31:40.485Z,20.20
2019-05-02T01:32:40.463Z,19.30
2019-05-02T01:33:41.844Z,19.70
2019-05-02T01:34:40.453Z,19.60
2019-05-02T01:35:40.435Z,19.20
2019-05-02T01:36:41.014Z,20.40
2019-05-02T01:37:40.402Z,19.50
2019-05-02T01:38:40.396Z,19.30
2019-05-02T01:39:42.713Z,19.50
2019-05-02T01:40:40.402Z,20.20
2019-05-02T01:41:40.363Z,18.90
2019-05-02T01:42:44.367Z,19.90
2019-05-02T01:43:41.353Z,20.10
2019-05-02T01:44:40.322Z,20.30
2019-05-02T01:45:41.851Z,20.30
2019-05-02T01:46:40.321Z,20.00
2019-05-02T01:47:40.304Z,20.60
2019-05-02T01:48:45.775Z,19.60
2019-05-02T01:49:41.270Z,20.40
2019-05-02T01:50:40.282Z,20.40
2019-05-02T01:51:41.842Z,19.20
2019-05-02T01:52:41.232Z,19.60
2019-05-02T01:53:40.248Z,20.10
2019-05-02T01:54:40.739Z,20.60
2019-05-02T01:55:41.213Z,20.20
2019-05-02T01:56:40.222Z,20.60
2019-05-02T01:57:44.713Z,20.60
2019-05-02T01:58:41.161Z,20.70
2019-05-02T01:59:40.223Z,19.60
2019-05-02T02:00:40.962Z,20.10
2019-05-02T02:01:40.142Z,20.10
2019-05-02T02:02:40.152Z,20.30
2019-05-02T02:03:40.566Z,20.30
2019-05-02T02:04:41.100Z,20.00
2019-05-02T02:05:40.103Z,20.70
2019-05-02T02:06:43.284Z,20.80
2019-05-02T02:07:40.073Z,20.30
2019-05-02T02:08:40.061Z,20.80
2019-05-02T02:09:43.898Z,20.10
2019-05-02T02:10:43.715Z,20.10
2019-05-02T02:11:40.043Z,19.80
2019-05-02T02:12:41.225Z,19.80
2019-05-02T02:13:41.026Z,20.50
2019-05-02T02:14:40.020Z,21.40
2019-05-02T02:15:40.028Z,21.70
2019-05-02T02:16:40.601Z,20.90
2019-05-02T02:17:39.959Z,20.40
2019-05-02T02:18:39.960Z,22.20
2019-05-02T02:19:40.714Z,21.00
2019-05-02T02:20:39.942Z,20.80
2019-05-02T02:21:42.724Z,21.60
2019-05-02T02:22:41.083Z,20.90
2019-05-02T02:23:39.919Z,21.50
2019-05-02T02:24:39.896Z,21.00
2019-05-02T02:25:39.892Z,22.50
2019-05-02T02:26:43.578Z,21.60
2019-05-02T02:27:40.861Z,21.40
2019-05-02T02:28:39.859Z,21.10
2019-05-02T02:29:44.056Z,22.10
2019-05-02T02:30:40.835Z,22.30
2019-05-02T02:31:46.257Z,21.50
2019-05-02T02:32:40.794Z,22.60
2019-05-02T02:33:40.867Z,22.10
2019-05-02T02:34:40.778Z,22.00
2019-05-02T02:35:49.520Z,22.50
2019-05-02T02:36:40.759Z,22.10
2019-05-02T02:37:52.136Z,22.70
2019-05-02T02:38:40.744Z,22.60
2019-05-02T02:39:39.715Z,21.60
2019-05-02T02:40:39.701Z,23.10
2019-05-02T02:41:45.113Z,22.60
2019-05-02T02:42:40.688Z,21.70
2019-05-02T02:43:39.679Z,22.60
2019-05-02T02:44:41.630Z,22.50
2019-05-02T02:45:39.654Z,22.70
2019-05-02T02:46:40.204Z,22.70
2019-05-02T02:47:39.652Z,22.70
2019-05-02T02:48:40.630Z,23.10
2019-05-02T02:49:39.601Z,22.80
2019-05-02T02:50:42.928Z,22.20
2019-05-02T02:51:40.590Z,22.60
2019-05-02T02:52:44.807Z,22.60
2019-05-02T02:53:40.581Z,22.80
2019-05-02T02:54:43.396Z,22.50
2019-05-02T02:55:40.537Z,23.20
2019-05-02T02:56:40.465Z,22.50
2019-05-02T02:57:39.531Z,22.50
2019-05-02T02:58:45.788Z,22.70
2019-05-02T02:59:40.501Z,23.20
2019-05-02T03:00:41.405Z,22.60
2019-05-02T03:01:40.477Z,23.60
2019-05-02T03:02:47.698Z,23.40
2019-05-02T03:03:40.481Z,23.30
2019-05-02T03:04:44.237Z,23.40
2019-05-02T03:05:40.426Z,23.00
2019-05-02T03:06:45.160Z,24.60
2019-05-02T03:07:40.420Z,22.90
2019-05-02T03:08:46.291Z,23.10
2019-05-02T03:09:40.387Z,23.30
2019-05-02T03:10:44.777Z,24.50
2019-05-02T03:11:40.381Z,24.80
2019-05-02T03:12:41.475Z,24.60
2019-05-02T03:13:51.520Z,24.00
2019-05-02T03:14:41.038Z,23.50
2019-05-02T03:15:40.319Z,24.10
2019-05-02T03:16:46.019Z,23.80
2019-05-02T03:17:40.312Z,23.60
2019-05-02T03:18:40.764Z,23.60
2019-05-02T03:19:39.298Z,22.80
2019-05-02T03:20:40.878Z,24.30
2019-05-02T03:21:39.260Z,24.20
2019-05-02T03:22:41.949Z,23.40
2019-05-02T03:23:39.248Z,23.10
2019-05-02T03:24:44.223Z,23.50
2019-05-02T03:25:50.723Z,23.70
2019-05-02T03:26:40.192Z,23.30
2019-05-02T03:27:40.367Z,23.30
2019-05-02T03:28:39.188Z,24.50
2019-05-02T03:29:43.694Z,23.60
2019-05-02T03:30:40.161Z,25.00
2019-05-02T03:31:39.148Z,23.70
2019-05-02T03:32:39.146Z,24.30
2019-05-02T03:33:51.586Z,23.30
2019-05-02T03:34:52.970Z,24.60
2019-05-02T03:35:44.767Z,24.60
2019-05-02T03:36:40.092Z,25.10
2019-05-02T03:37:44.830Z,24.00
2019-05-02T03:38:40.089Z,23.00
2019-05-02T03:39:39.059Z,23.50
2019-05-02T03:40:41.310Z,24.40
2019-05-02T03:41:39.025Z,24.90
2019-05-02T03:42:44.685Z,24.50
2019-05-02T03:43:40.038Z,24.60
2019-05-02T03:44:38.997Z,24.80
2019-05-02T03:45:40.486Z,23.60
2019-05-02T03:46:38.985Z,24.50
2019-05-02T03:47:43.691Z,24.60
2019-05-02T03:48:39.991Z,23.50
2019-05-02T03:49:41.028Z,24.90
2019-05-02T03:50:39.940Z,24.40
2019-05-02T03:51:38.937Z,24.00
2019-05-02T03:52:43.460Z,24.70
2019-05-02T03:53:39.904Z,24.20
2019-05-02T03:54:48.978Z,25.70
2019-05-02T03:55:39.875Z,25.20
2019-05-02T03:56:44.930Z,23.80
2019-05-02T03:57:42.079Z,24.90
2019-05-02T03:58:38.851Z,25.00
2019-05-02T03:59:41.780Z,23.90
2019-05-02T04:00:38.815Z,24.20
2019-05-02T04:01:41.394Z,25.40
2019-05-02T04:02:38.792Z,24.10
2019-05-02T04:03:40.843Z,24.40
2019-05-02T04:04:38.783Z,24.80
2019-05-02T04:05:40.246Z,23.60
2019-05-02T04:06:38.758Z,24.20
2019-05-02T04:07:40.847Z,24.70
2019-05-02T04:08:38.724Z,23.90
2019-05-02T04:09:41.840Z,24.50
2019-05-02T04:10:38.738Z,24.20
2019-05-02T04:11:40.798Z,24.80
2019-05-02T04:12:38.697Z,25.10
2019-05-02T04:13:38.695Z,24.50
2019-05-02T04:14:39.385Z,25.10
2019-05-02T04:15:38.653Z,24.60
2019-05-02T04:16:38.657Z,24.50
2019-05-02T04:17:38.643Z,25.20
2019-05-02T04:18:38.645Z,25.20
2019-05-02T04:19:38.607Z,23.90
2019-05-02T04:20:43.678Z,24.50
2019-05-02T04:21:39.626Z,23.60
2019-05-02T04:22:42.670Z,25.30
2019-05-02T04:23:39.581Z,25.40
2019-05-02T04:24:38.563Z,24.60
2019-05-02T04:25:38.543Z,24.50
2019-05-02T04:26:38.554Z,25.50
2019-05-02T04:27:38.522Z,24.60
2019-05-02T04:28:38.532Z,24.70
2019-05-02T04:29:38.506Z,24.90
2019-05-02T04:30:38.491Z,24.80
2019-05-02T04:31:38.489Z,24.80
2019-05-02T04:32:42.507Z,23.90
2019-05-02T04:33:38.463Z,24.30
2019-05-02T04:34:38.477Z,24.60
2019-05-02T04:35:38.451Z,24.10
2019-05-02T04:36:38.444Z,24.40
2019-05-02T04:37:40.991Z,25.10
2019-05-02T04:38:47.056Z,24.60
2019-05-02T04:39:39.450Z,24.50
2019-05-02T04:40:41.725Z,24.10
2019-05-02T04:41:42.392Z,24.20
2019-05-02T04:42:39.262Z,23.90
2019-05-02T04:43:43.066Z,23.90
2019-05-02T04:44:52.709Z,22.80
2019-05-02T04:45:52.828Z,24.30
2019-05-02T04:46:39.330Z,22.80
2019-05-02T04:47:39.513Z,23.30
2019-05-02T04:48:43.877Z,23.50
2019-05-02T04:49:39.497Z,23.80
2019-05-02T04:50:38.272Z,23.30
2019-05-02T04:51:38.421Z,23.80
2019-05-02T04:52:47.247Z,23.10
2019-05-02T04:53:44.354Z,22.60
2019-05-02T04:54:39.281Z,22.40
2019-05-02T04:55:38.287Z,23.20
2019-05-02T04:56:42.244Z,22.70
2019-05-02T04:57:46.824Z,22.90
2019-05-02T04:58:40.604Z,23.30
2019-05-02T04:59:39.446Z,23.10
2019-05-02T05:00:39.249Z,22.60
2019-05-02T05:01:43.398Z,22.90
2019-05-02T05:02:40.009Z,22.60
2019-05-02T05:03:38.150Z,22.50
2019-05-02T05:04:46.107Z,22.20
2019-05-02T05:05:40.351Z,22.00
2019-05-02T05:06:40.752Z,21.50
2019-05-02T05:07:43.685Z,21.30
2019-05-02T05:08:41.745Z,21.60
2019-05-02T05:09:40.050Z,21.80
2019-05-02T05:10:41.482Z,22.60
2019-05-02T05:11:39.089Z,21.80
2019-05-02T05:12:41.774Z,21.90
2019-05-02T05:13:38.041Z,21.40
2019-05-02T05:14:42.850Z,22.10
2019-05-02T05:15:48.517Z,20.70
2019-05-02T05:16:40.075Z,20.60
2019-05-02T05:17:37.984Z,21.30
2019-05-02T05:18:38.006Z,20.80
2019-05-02T05:19:37.985Z,20.90
2019-05-02T05:20:40.379Z,21.10
2019-05-02T05:21:37.940Z,20.90
2019-05-02T05:22:44.213Z,22.20
2019-05-02T05:23:38.919Z,21.50
2019-05-02T05:24:42.114Z,20.90
2019-05-02T05:25:38.095Z,21.10
2019-05-02T05:26:40.985Z,21.60
2019-05-02T05:27:37.868Z,21.40
2019-05-02T05:28:40.459Z,20.80
2019-05-02T05:29:38.844Z,22.00
2019-05-02T05:30:45.032Z,21.10
2019-05-02T05:31:38.829Z,21.90
2019-05-02T05:32:37.795Z,21.90
2019-05-02T05:33:37.889Z,22.00
2019-05-02T05:34:38.023Z,21.90
2019-05-02T05:35:38.528Z,22.40
2019-05-02T05:36:37.756Z,21.30
2019-05-02T05:37:38.187Z,21.40
2019-05-02T05:38:40.461Z,21.10
2019-05-02T05:39:38.207Z,22.20
2019-05-02T05:40:37.722Z,22.00
2019-05-02T05:41:37.946Z,20.40
2019-05-02T05:42:38.256Z,21.60
2019-05-02T05:43:38.140Z,20.70
2019-05-02T05:44:39.894Z,22.40
2019-05-02T05:45:48.775Z,21.70
2019-05-02T05:46:42.407Z,21.90
2019-05-02T05:47:37.866Z,21.70
2019-05-02T05:48:40.773Z,21.10
2019-05-02T05:49:37.669Z,21.10
2019-05-02T05:50:41.264Z,21.30
2019-05-02T05:51:37.605Z,21.60
2019-05-02T05:52:38.752Z,21.90
2019-05-02T05:53:37.661Z,20.50
2019-05-02T05:54:40.503Z,21.80
2019-05-02T05:55:38.314Z,21.80
2019-05-02T05:56:42.862Z,20.80
2019-05-02T05:57:38.600Z,22.00
2019-05-02T05:58:39.994Z,21.40
2019-05-02T05:59:38.516Z,21.40
2019-05-02T06:00:38.008Z,21.30
2019-05-02T06:01:38.598Z,21.80
2019-05-02T06:02:50.853Z,21.70
2019-05-02T06:03:43.846Z,21.80
2019-05-02T06:04:39.405Z,21.00
2019-05-02T06:05:38.437Z,21.20
2019-05-02T06:06:37.818Z,21.30
2019-05-02T06:07:41.845Z,21.60
2019-05-02T06:08:38.605Z,21.30
2019-05-02T06:09:37.406Z,22.50
2019-05-02T06:10:39.017Z,21.30
2019-05-02T06:11:38.688Z,21.90
2019-05-02T06:12:37.369Z,22.10
2019-05-02T06:13:38.194Z,21.60
2019-05-02T06:14:37.493Z,20.90
2019-05-02T06:15:39.076Z,21.90
2019-05-02T06:16:37.334Z,22.40
2019-05-02T06:17:37.303Z,21.90
2019-05-02T06:18:41.733Z,22.20
2019-05-02T06:19:38.283Z,21.80
2019-05-02T06:20:37.307Z,21.50
2019-05-02T06:21:40.085Z,22.50
2019-05-02T06:22:38.252Z,22.80
2019-05-02T06:23:41.086Z,21.60
2019-05-02T06:24:37.236Z,22.30
2019-05-02T06:25:37.224Z,21.90
2019-05-02T06:26:37.222Z,22.50
2019-05-02T06:27:37.201Z,22.30
2019-05-02T06:28:41.748Z,23.30
2019-05-02T06:29:38.171Z,23.90
2019-05-02T06:30:37.163Z,23.80
2019-05-02T06:31:38.134Z,23.20
2019-05-02T06:32:38.332Z,24.00
2019-05-02T06:33:37.146Z,23.50
2019-05-02T06:34:38.759Z,22.80
2019-05-02T06:35:38.105Z,24.40
2019-05-02T06:36:38.086Z,23.30
2019-05-02T06:37:37.115Z,22.90
2019-05-02T06:38:37.074Z,23.50
2019-05-02T06:39:37.061Z,24.80
2019-05-02T06:40:39.289Z,24.90
2019-05-02T06:41:38.044Z,24.80
2019-05-02T06:42:38.061Z,24.20
2019-05-02T06:43:41.355Z,24.00
2019-05-02T06:44:38.061Z,24.30
2019-05-02T06:45:37.604Z,24.00
2019-05-02T06:46:37.110Z,23.20
2019-05-02T06:47:41.685Z,23.40
2019-05-02T06:48:37.969Z,23.50
2019-05-02T06:49:36.970Z,23.70
2019-05-02T06:50:39.006Z,23.00
2019-05-02T06:51:36.935Z,22.80
2019-05-02T06:52:36.922Z,23.40
2019-05-02T06:53:41.251Z,24.00
2019-05-02T06:54:37.902Z,24.10
2019-05-02T06:55:38.723Z,23.10
2019-05-02T06:56:36.870Z,23.80
2019-05-02T06:57:36.870Z,23.10
2019-05-02T06:58:37.126Z,23.20
2019-05-02T06:59:36.848Z,24.20
2019-05-02T07:00:55.252Z,24.30
2019-05-02T07:01:37.832Z,23.50
2019-05-02T07:02:36.836Z,24.50
2019-05-02T07:03:41.315Z,24.10
2019-05-02T07:04:37.804Z,23.90
2019-05-02T07:05:36.779Z,24.10
2019-05-02T07:06:56.092Z,25.30
2019-05-02T07:07:37.908Z,25.00
2019-05-02T07:08:36.769Z,24.20
2019-05-02T07:09:40.703Z,25.10
2019-05-02T07:10:44.353Z,25.50
2019-05-02T07:11:38.749Z,26.70
2019-05-02T07:12:36.707Z,26.40
2019-05-02T07:13:41.880Z,26.90
2019-05-02T07:14:37.692Z,26.50
2019-05-02T07:15:38.420Z,27.20
2019-05-02T07:16:38.973Z,27.40
2019-05-02T07:17:38.406Z,28.20
2019-05-02T07:18:36.639Z,28.70
2019-05-02T07:19:36.628Z,29.00
2019-05-02T07:20:40.704Z,29.00
2019-05-02T07:21:37.609Z,30.40
2019-05-02T07:22:38.794Z,29.70
2019-05-02T07:23:36.584Z,31.80
2019-05-02T07:24:36.579Z,31.40
2019-05-02T07:25:39.161Z,31.90
2019-05-02T07:26:36.548Z,32.50
2019-05-02T07:27:38.926Z,33.30
2019-05-02T07:28:40.174Z,33.90
2019-05-02T07:29:37.520Z,32.60
2019-05-02T07:30:36.521Z,32.50
2019-05-02T07:31:36.506Z,33.30
2019-05-02T07:32:36.477Z,34.00
2019-05-02T07:33:37.563Z,33.30
2019-05-02T07:34:36.549Z,32.50
2019-05-02T07:35:36.451Z,33.00
2019-05-02T07:36:38.316Z,32.50
2019-05-02T07:37:36.430Z,32.20
2019-05-02T07:38:36.427Z,31.20
2019-05-02T07:39:40.892Z,30.90
2019-05-02T07:40:37.409Z,31.00
2019-05-02T07:41:37.271Z,30.50
2019-05-02T07:42:36.863Z,30.00
2019-05-02T07:43:37.360Z,30.40
2019-05-02T07:44:36.348Z,29.60
2019-05-02T07:45:40.329Z,29.50
2019-05-02T07:46:50.702Z,29.50
2019-05-02T07:47:40.120Z,29.40
2019-05-02T07:48:36.340Z,29.80
2019-05-02T07:49:36.289Z,28.60
2019-05-02T07:50:36.278Z,30.10
2019-05-02T07:51:36.269Z,28.90
2019-05-02T07:52:36.286Z,29.60
2019-05-02T07:53:36.275Z,29.40
2019-05-02T07:54:36.241Z,29.20
2019-05-02T07:55:40.762Z,29.80
2019-05-02T07:56:37.217Z,29.40
2019-05-02T07:57:36.219Z,30.10
2019-05-02T07:58:38.491Z,29.40
2019-05-02T07:59:37.190Z,30.00
2019-05-02T08:00:37.206Z,30.20
2019-05-02T08:01:36.166Z,30.00
2019-05-02T08:02:36.156Z,29.90
2019-05-02T08:03:36.159Z,30.40
2019-05-02T08:04:36.139Z,30.00
2019-05-02T08:05:36.118Z,29.70
2019-05-02T08:06:40.232Z,30.30
2019-05-02T08:07:37.124Z,30.60
2019-05-02T08:08:36.479Z,30.80
2019-05-02T08:09:39.212Z,31.30
2019-05-02T08:10:37.068Z,29.90
2019-05-02T08:11:37.136Z,30.10
2019-05-02T08:12:36.049Z,30.80
2019-05-02T08:13:36.035Z,29.80
2019-05-02T08:14:36.414Z,29.90
2019-05-02T08:15:36.014Z,29.20
2019-05-02T08:16:35.999Z,31.20
2019-05-02T08:17:35.998Z,31.10
2019-05-02T08:18:35.975Z,31.70
2019-05-02T08:19:37.591Z,30.90
2019-05-02T08:20:36.945Z,30.90
2019-05-02T08:21:35.949Z,30.20
2019-05-02T08:22:35.947Z,31.60
2019-05-02T08:23:35.930Z,31.20
2019-05-02T08:24:37.964Z,30.10
2019-05-02T08:25:35.920Z,31.50
2019-05-02T08:26:35.890Z,31.60
2019-05-02T08:27:36.706Z,31.30
2019-05-02T08:28:35.874Z,31.50
2019-05-02T08:29:35.864Z,30.60
2019-05-02T08:30:40.548Z,30.60
2019-05-02T08:31:36.825Z,30.60
2019-05-02T08:32:35.830Z,32.30
2019-05-02T08:33:35.966Z,31.20
2019-05-02T08:34:35.808Z,31.50
2019-05-02T08:35:35.808Z,31.60
2019-05-02T08:36:35.766Z,30.80
2019-05-02T08:37:41.189Z,30.80
2019-05-02T08:38:36.756Z,32.00
2019-05-02T08:39:35.737Z,31.50
2019-05-02T08:40:35.736Z,30.40
2019-05-02T08:41:35.730Z,31.00
2019-05-02T08:42:35.717Z,30.70
2019-05-02T08:43:40.017Z,31.20
2019-05-02T08:44:49.951Z,31.10
2019-05-02T08:45:38.132Z,31.70
2019-05-02T08:46:35.668Z,30.10
2019-05-02T08:47:35.681Z,30.10
2019-05-02T08:48:36.375Z,31.00
2019-05-02T08:49:36.635Z,30.90
2019-05-02T08:50:35.636Z,30.30
2019-05-02T08:51:35.627Z,30.50
2019-05-02T08:52:36.867Z,29.10
2019-05-02T08:53:36.597Z,30.10
2019-05-02T08:54:35.593Z,30.30
2019-05-02T08:55:35.596Z,29.40
2019-05-02T08:56:35.589Z,30.30
2019-05-02T08:57:36.334Z,28.90
2019-05-02T08:58:35.537Z,29.50
2019-05-02T08:59:35.546Z,29.10
2019-05-02T09:00:37.446Z,29.40
2019-05-02T09:01:35.687Z,30.10
2019-05-02T09:02:41.538Z,29.20
2019-05-02T09:03:54.808Z,28.50
2019-05-02T09:04:36.496Z,28.60
2019-05-02T09:05:36.960Z,28.80
2019-05-02T09:06:36.476Z,28.60
2019-05-02T09:07:37.023Z,28.10
2019-05-02T09:08:35.424Z,28.90
2019-05-02T09:09:35.417Z,28.60
2019-05-02T09:10:37.089Z,28.50
2019-05-02T09:11:36.406Z,27.60
2019-05-02T09:12:36.841Z,27.40
2019-05-02T09:13:36.376Z,28.20
2019-05-02T09:14:35.378Z,27.70
2019-05-02T09:15:39.872Z,28.70
2019-05-02T09:16:36.355Z,28.30
2019-05-02T09:17:38.731Z,27.20
2019-05-02T09:18:40.587Z,27.50
2019-05-02T09:19:36.312Z,27.90
2019-05-02T09:20:35.294Z,27.60
2019-05-02T09:21:36.097Z,26.50
2019-05-02T09:22:35.276Z,27.70
2019-05-02T09:23:37.097Z,28.00
2019-05-02T09:24:35.256Z,27.40
2019-05-02T09:25:35.256Z,27.70
2019-05-02T09:26:38.627Z,27.20
2019-05-02T09:27:35.226Z,28.40
2019-05-02T09:28:35.206Z,28.40
2019-05-02T09:29:37.293Z,27.60
2019-05-02T09:30:36.197Z,28.40
2019-05-02T09:31:36.835Z,28.70
2019-05-02T09:32:37.235Z,27.30
2019-05-02T09:33:36.767Z,28.70
2019-05-02T09:34:36.147Z,28.60
2019-05-02T09:35:35.133Z,28.70
2019-05-02T09:36:38.095Z,27.20
2019-05-02T09:37:35.103Z,28.30
2019-05-02T09:38:35.106Z,29.00
2019-05-02T09:39:36.647Z,27.90
2019-05-02T09:40:35.074Z,28.00
2019-05-02T09:41:36.377Z,28.40
2019-05-02T09:42:35.043Z,28.40
2019-05-02T09:43:39.048Z,28.50
2019-05-02T09:44:35.056Z,29.40
2019-05-02T09:45:37.301Z,29.20
2019-05-02T09:46:35.016Z,28.40
2019-05-02T09:47:52.613Z,28.30
2019-05-02T09:48:35.986Z,27.80
2019-05-02T09:49:35.134Z,27.90
2019-05-02T09:50:38.094Z,28.00
2019-05-02T09:51:34.965Z,28.20
2019-05-02T09:52:39.556Z,27.20
2019-05-02T09:53:35.926Z,27.70
2019-05-02T09:54:36.927Z,27.60
2019-05-02T09:55:35.914Z,27.90
2019-05-02T09:56:34.903Z,28.10
2019-05-02T09:57:34.886Z,27.70
2019-05-02T09:58:34.885Z,27.90
2019-05-02T09:59:34.906Z,27.40
2019-05-02T10:00:36.356Z,27.40
2019-05-02T10:01:34.864Z,27.90
2019-05-02T10:02:34.824Z,27.40
2019-05-02T10:03:34.832Z,27.00
2019-05-02T10:04:34.827Z,27.30
2019-05-02T10:05:34.798Z,27.70
2019-05-02T10:06:34.797Z,26.90
2019-05-02T10:07:34.783Z,27.20
2019-05-02T10:08:38.212Z,28.20
2019-05-02T10:09:35.763Z,27.80
2019-05-02T10:10:37.137Z,28.70
2019-05-02T10:11:35.751Z,28.40
2019-05-02T10:12:34.725Z,27.80
2019-05-02T10:13:34.726Z,27.50
2019-05-02T10:14:34.702Z,27.90
2019-05-02T10:15:34.718Z,28.30
2019-05-02T10:16:34.714Z,28.60
2019-05-02T10:17:37.557Z,27.70
2019-05-02T10:18:35.660Z,27.60
2019-05-02T10:19:34.653Z,28.40
2019-05-02T10:20:36.370Z,28.00
2019-05-02T10:21:34.636Z,28.10
2019-05-02T10:22:39.462Z,27.80
2019-05-02T10:23:35.603Z,28.10
2019-05-02T10:24:34.593Z,28.00
2019-05-02T10:25:38.423Z,29.70
2019-05-02T10:26:35.575Z,28.80
2019-05-02T10:27:38.478Z,28.70
2019-05-02T10:28:35.562Z,28.40
2019-05-02T10:29:34.536Z,28.60
2019-05-02T10:30:36.077Z,27.20
2019-05-02T10:31:37.706Z,28.10
2019-05-02T10:32:34.521Z,28.20
2019-05-02T10:33:37.566Z,27.30
2019-05-02T10:34:34.485Z,27.20
2019-05-02T10:35:40.407Z,26.60
2019-05-02T10:36:35.497Z,27.50
2019-05-02T10:37:38.203Z,27.30
2019-05-02T10:38:35.445Z,26.90
2019-05-02T10:39:37.815Z,27.60
2019-05-02T10:40:34.412Z,26.90
2019-05-02T10:41:39.609Z,27.00
2019-05-02T10:42:35.405Z,26.60
2019-05-02T10:43:34.372Z,27.50
2019-05-02T10:44:36.431Z,26.50
2019-05-02T10:45:34.372Z,25.50
2019-05-02T10:46:37.687Z,25.10
2019-05-02T10:47:36.336Z,24.70
2019-05-02T10:48:34.325Z,25.20
2019-05-02T10:49:34.324Z,24.10
2019-05-02T10:50:34.318Z,24.20
2019-05-02T10:51:34.304Z,24.50
2019-05-02T10:52:34.417Z,25.00
2019-05-02T10:53:34.292Z,24.40
2019-05-02T10:54:37.465Z,24.50
2019-05-02T10:55:34.265Z,24.30
2019-05-02T10:56:34.231Z,23.00
2019-05-02T10:57:34.234Z,23.50
2019-05-02T10:58:35.668Z,23.40
2019-05-02T10:59:34.221Z,22.10
2019-05-02T11:00:34.203Z,22.00
2019-05-02T11:01:34.201Z,21.90
2019-05-02T11:02:34.173Z,21.30
2019-05-02T11:03:37.956Z,21.50
2019-05-02T11:04:35.155Z,23.20
2019-05-02T11:05:37.080Z,22.50
2019-05-02T11:06:37.173Z,23.40
2019-05-02T11:07:35.184Z,22.40
2019-05-02T11:08:36.842Z,23.30
2019-05-02T11:09:35.104Z,22.40
2019-05-02T11:10:34.094Z,21.20
2019-05-02T11:11:34.084Z,22.20
2019-05-02T11:12:41.898Z,22.20
2019-05-02T11:13:35.062Z,22.70
2019-05-02T11:14:34.042Z,22.40
2019-05-02T11:15:34.043Z,21.50
2019-05-02T11:16:34.021Z,20.90
2019-05-02T11:17:36.384Z,20.40
2019-05-02T11:18:42.012Z,20.70
2019-05-02T11:19:34.993Z,20.00
2019-05-02T11:20:33.994Z,19.70
2019-05-02T11:21:33.963Z,20.20
2019-05-02T11:22:33.971Z,20.10
2019-05-02T11:23:33.976Z,20.40
2019-05-02T11:24:33.943Z,20.00
2019-05-02T11:25:33.930Z,20.60
2019-05-02T11:26:33.914Z,20.90
2019-05-02T11:27:33.891Z,20.50
2019-05-02T11:28:33.902Z,21.00
2019-05-02T11:29:33.901Z,21.10
2019-05-02T11:30:33.861Z,20.90
2019-05-02T11:31:33.872Z,19.20
2019-05-02T11:32:33.841Z,19.60
2019-05-02T11:33:33.834Z,19.40
2019-05-02T11:34:33.821Z,18.90
2019-05-02T11:35:33.823Z,18.40
2019-05-02T11:36:33.803Z,18.60
2019-05-02T11:37:33.787Z,19.30
2019-05-02T11:38:34.140Z,19.60
2019-05-02T11:39:43.695Z,18.80
2019-05-02T11:40:34.783Z,19.50
2019-05-02T11:41:33.741Z,20.50
2019-05-02T11:42:33.734Z,19.70
2019-05-02T11:43:37.069Z,18.70
2019-05-02T11:44:34.712Z,18.70
2019-05-02T11:45:33.721Z,18.70
2019-05-02T11:46:37.539Z,18.30
2019-05-02T11:47:34.684Z,17.80
2019-05-02T11:48:33.675Z,17.90
2019-05-02T11:49:33.652Z,17.50
2019-05-02T11:50:35.422Z,17.30
2019-05-02T11:51:33.644Z,17.60
2019-05-02T11:52:37.324Z,18.00
2019-05-02T11:53:33.625Z,17.40
2019-05-02T11:54:33.634Z,17.70
2019-05-02T11:55:33.594Z,17.50
2019-05-02T11:56:33.604Z,16.80
2019-05-02T11:57:33.589Z,16.90
2019-05-02T11:58:33.561Z,16.70
2019-05-02T11:59:33.563Z,17.00
2019-05-02T12:00:33.544Z,18.00
2019-05-02T12:01:37.101Z,18.80
2019-05-02T12:02:34.512Z,18.40
2019-05-02T12:03:36.835Z,18.40
2019-05-02T12:04:33.482Z,18.30
2019-05-02T12:05:35.683Z,18.50
2019-05-02T12:06:33.504Z,18.30
2019-05-02T12:07:33.452Z,17.50
2019-05-02T12:08:33.443Z,17.70
2019-05-02T12:09:33.442Z,17.20
2019-05-02T12:10:36.668Z,18.90
2019-05-02T12:11:33.424Z,18.30
2019-05-02T12:12:36.269Z,18.00
2019-05-02T12:13:33.392Z,18.80
2019-05-02T12:14:36.370Z,17.50
2019-05-02T12:15:33.379Z,17.80
2019-05-02T12:16:33.364Z,18.50
2019-05-02T12:17:33.392Z,19.80
2019-05-02T12:18:33.336Z,19.30
2019-05-02T12:19:33.342Z,19.50
2019-05-02T12:20:36.560Z,18.80
2019-05-02T12:21:33.313Z,18.70
2019-05-02T12:22:33.329Z,18.40
2019-05-02T12:23:36.148Z,19.10
2019-05-02T12:24:36.391Z,19.10
2019-05-02T12:25:34.262Z,18.20
2019-05-02T12:26:33.251Z,17.20
2019-05-02T12:27:33.241Z,18.00
2019-05-02T12:28:33.245Z,16.30
2019-05-02T12:29:33.588Z,16.70
2019-05-02T12:30:36.491Z,15.60
2019-05-02T12:31:33.224Z,17.20
2019-05-02T12:32:33.513Z,16.70
2019-05-02T12:33:33.182Z,17.60
2019-05-02T12:34:33.162Z,18.50
2019-05-02T12:35:33.185Z,17.00
2019-05-02T12:36:33.502Z,19.00
2019-05-02T12:37:33.132Z,17.60
2019-05-02T12:38:33.126Z,17.70
2019-05-02T12:39:33.104Z,17.90
2019-05-02T12:40:33.105Z,18.10
2019-05-02T12:41:33.317Z,18.30
2019-05-02T12:42:33.679Z,18.00
2019-05-02T12:43:33.075Z,17.50
2019-05-02T12:44:33.062Z,17.40
2019-05-02T12:45:33.682Z,17.80
2019-05-02T12:46:33.045Z,16.80
2019-05-02T12:47:33.035Z,17.50
2019-05-02T12:48:33.035Z,16.80
2019-05-02T12:49:33.006Z,16.90
2019-05-02T12:50:32.983Z,16.70
2019-05-02T12:51:33.003Z,17.90
2019-05-02T12:52:32.975Z,17.90